Time;durP1;ratioP1;P1;durP2;ratioP2;P2;SDS_P1;SDS_P2;PMS_P1;PMS_P2;Temp;Humidity;BMP_temperature;BMP_pressure;BME280_temperature;BME280_humidity;BME280_pressure;Samples;Min_cycle;Max_cycle;Signal;HPM_P1;HPM_P2
2022/08/31 00:04:15;;;;;;;2.00;0.60;;;15.40;99.90;;;;;;5031674;28;20025;-80
2022/08/31 00:06:42;;;;;;;2.25;0.80;;;15.30;99.90;;;;;;5037349;28;20086;-80
2022/08/31 00:09:08;;;;;;;2.17;0.75;;;15.30;99.90;;;;;;5062170;28;20021;-82
2022/08/31 00:11:34;;;;;;;3.08;1.05;;;15.30;99.90;;;;;;5071052;28;20070;-86
2022/08/31 00:14:07;;;;;;;3.45;0.85;;;15.20;99.90;;;;;;5037387;28;20155;-84
2022/08/31 00:16:41;;;;;;;2.00;0.70;;;15.20;99.90;;;;;;5033693;28;20040;-79
2022/08/31 00:19:07;;;;;;;2.50;0.77;;;15.10;99.90;;;;;;5019118;28;20021;-81
2022/08/31 00:21:32;;;;;;;1.45;0.90;;;15.10;99.90;;;;;;5033074;28;20021;-81
2022/08/31 00:23:58;;;;;;;2.67;0.88;;;15.10;99.90;;;;;;5031659;28;20036;-80
2022/08/31 00:26:25;;;;;;;1.50;0.80;;;15.10;99.90;;;;;;5014786;28;20448;-82
2022/08/31 00:28:51;;;;;;;2.33;1.10;;;15.00;99.90;;;;;;5047080;28;20037;-81
2022/08/31 00:31:17;;;;;;;2.70;0.90;;;15.00;99.90;;;;;;5031904;28;20510;-81
2022/08/31 00:33:43;;;;;;;2.00;0.82;;;15.00;99.90;;;;;;5047063;28;20041;-81
2022/08/31 00:36:12;;;;;;;2.08;0.88;;;15.00;99.90;;;;;;5029322;28;20025;-79
2022/08/31 00:38:40;;;;;;;2.42;0.70;;;15.00;99.90;;;;;;5045091;28;20599;-81
2022/08/31 00:41:08;;;;;;;2.35;1.08;;;15.00;99.90;;;;;;5047842;28;20033;-82
2022/08/31 00:43:48;;;;;;;2.25;0.80;;;15.00;99.90;;;;;;5031137;28;20036;-82
2022/08/31 00:46:23;;;;;;;1.40;0.80;;;15.00;99.90;;;;;;5008552;28;20128;-83
2022/08/31 00:49:00;;;;;;;8.27;1.13;;;15.00;99.90;;;;;;5040795;28;20031;-79
2022/08/31 00:51:27;;;;;;;1.15;0.70;;;15.00;99.90;;;;;;5031195;28;20033;-81
2022/08/31 00:53:54;;;;;;;1.83;0.88;;;14.90;99.90;;;;;;5048266;28;20055;-82
2022/08/31 00:56:20;;;;;;;1.40;0.80;;;14.90;99.90;;;;;;5048530;28;20098;-81
2022/08/31 00:58:50;;;;;;;1.98;0.85;;;14.90;99.90;;;;;;5029547;28;20033;-82
2022/08/31 01:01:17;;;;;;;1.60;0.95;;;14.90;99.90;;;;;;5029031;28;20036;-83
2022/08/31 01:03:43;;;;;;;2.15;0.90;;;14.80;99.90;;;;;;5034314;28;20062;-80
2022/08/31 01:06:23;;;;;;;1.70;0.80;;;14.90;99.90;;;;;;5033675;28;20028;-79
2022/08/31 01:08:50;;;;;;;3.17;1.00;;;14.80;99.90;;;;;;5057204;28;20044;-86
2022/08/31 01:11:18;;;;;;;2.30;1.10;;;14.80;99.90;;;;;;5035159;28;20152;-81
2022/08/31 01:13:44;;;;;;;2.25;0.90;;;14.80;99.90;;;;;;5031147;28;20025;-81
2022/08/31 01:16:15;;;;;;;1.35;0.70;;;14.70;99.90;;;;;;5032773;28;20186;-82
2022/08/31 01:18:44;;;;;;;1.60;0.90;;;14.70;99.90;;;;;;5028065;28;20040;-82
2022/08/31 01:21:24;;;;;;;1.65;0.88;;;14.70;99.90;;;;;;5049155;28;20527;-81
2022/08/31 01:23:54;;;;;;;1.02;0.73;;;14.70;99.90;;;;;;5046993;28;20177;-81
2022/08/31 01:26:24;;;;;;;2.05;0.88;;;14.60;99.90;;;;;;5029974;28;20033;-80
2022/08/31 01:28:56;;;;;;;1.95;0.80;;;14.70;99.90;;;;;;5048147;28;20021;-85
2022/08/31 01:31:31;;;;;;;;;;;14.70;99.90;;;;;;5036223;28;20112;-85
2022/08/31 01:33:57;;;;;;;1.67;0.70;;;14.60;99.90;;;;;;5053396;28;20420;-82
2022/08/31 01:36:24;;;;;;;1.42;0.77;;;14.60;99.90;;;;;;5032142;28;20033;-80
2022/08/31 01:38:50;;;;;;;3.05;0.75;;;14.60;99.90;;;;;;5013085;28;20029;-79
2022/08/31 01:41:16;;;;;;;1.17;0.80;;;14.60;99.90;;;;;;5028881;28;20492;-79
2022/08/31 01:43:42;;;;;;;0.98;0.70;;;14.60;99.90;;;;;;5029456;28;20029;-80
2022/08/31 01:46:12;;;;;;;1.05;0.80;;;14.50;99.90;;;;;;5031274;28;20075;-83
2022/08/31 01:48:40;;;;;;;0.93;0.60;;;14.50;99.90;;;;;;5033021;28;20021;-83
2022/08/31 01:51:06;;;;;;;2.50;0.70;;;14.50;99.90;;;;;;5049379;28;20116;-80
2022/08/31 01:53:32;;;;;;;1.90;0.88;;;14.50;99.90;;;;;;5031558;28;20025;-82
2022/08/31 01:55:57;;;;;;;2.30;0.90;;;14.50;99.90;;;;;;5032697;28;20036;-81
2022/08/31 01:58:34;;;;;;;1.80;0.60;;;14.40;99.90;;;;;;5054140;28;20025;-78
2022/08/31 02:01:00;;;;;;;0.95;0.70;;;14.40;99.90;;;;;;5056137;28;20055;-81
2022/08/31 02:03:26;;;;;;;1.35;0.80;;;14.40;99.90;;;;;;5056797;28;20029;-84
2022/08/31 02:05:51;;;;;;;1.30;0.70;;;14.40;99.90;;;;;;5051698;28;20053;-81
2022/08/31 02:08:19;;;;;;;1.60;0.68;;;14.40;99.90;;;;;;5019273;28;20412;-79
2022/08/31 02:10:45;;;;;;;0.95;0.60;;;14.40;99.90;;;;;;5030634;28;20603;-80
2022/08/31 02:13:11;;;;;;;2.58;0.80;;;14.40;99.90;;;;;;5032136;28;20091;-80
2022/08/31 02:15:37;;;;;;;1.10;0.60;;;14.40;99.90;;;;;;5036696;28;20025;-80
2022/08/31 02:18:04;;;;;;;1.73;1.02;;;14.40;99.90;;;;;;5022871;28;20032;-81
2022/08/31 02:20:29;;;;;;;2.15;0.73;;;14.40;99.90;;;;;;5038378;28;20028;-81
2022/08/31 02:22:55;;;;;;;1.17;0.80;;;14.30;99.90;;;;;;5017528;28;20025;-79
2022/08/31 02:25:21;;;;;;;1.05;0.70;;;14.30;99.90;;;;;;5032454;28;20083;-79
2022/08/31 02:27:46;;;;;;;1.92;0.63;;;14.30;99.90;;;;;;5034742;28;20527;-80
2022/08/31 02:30:16;;;;;;;1.40;0.70;;;14.20;99.90;;;;;;5016843;28;20037;-80
2022/08/31 02:32:42;;;;;;;0.80;0.70;;;14.20;99.90;;;;;;5032121;28;20588;-79
2022/08/31 02:35:08;;;;;;;0.60;0.60;;;14.20;99.90;;;;;;5030136;28;20086;-83
2022/08/31 02:37:35;;;;;;;1.42;0.70;;;14.20;99.90;;;;;;5050150;28;20497;-83
2022/08/31 02:40:01;;;;;;;0.95;0.60;;;14.20;99.90;;;;;;5031414;28;20018;-80
2022/08/31 02:42:27;;;;;;;1.50;0.70;;;14.20;99.90;;;;;;5049741;28;20093;-81
2022/08/31 02:44:54;;;;;;;1.27;0.63;;;14.20;99.90;;;;;;5029999;28;20568;-82
2022/08/31 02:47:20;;;;;;;1.05;0.70;;;14.20;99.90;;;;;;5030770;28;20035;-79
2022/08/31 02:49:46;;;;;;;0.77;0.60;;;14.20;99.90;;;;;;5048881;28;20033;-81
2022/08/31 02:52:11;;;;;;;1.17;0.77;;;14.20;99.90;;;;;;5050400;28;20119;-79
2022/08/31 02:54:37;;;;;;;2.03;0.80;;;14.20;99.90;;;;;;5011508;28;20040;-80
2022/08/31 02:57:03;;;;;;;1.52;0.80;;;14.20;99.90;;;;;;5012474;28;20055;-78
2022/08/31 02:59:32;;;;;;;1.05;0.80;;;14.10;99.90;;;;;;5030667;28;20586;-80
2022/08/31 03:01:58;;;;;;;1.58;0.60;;;14.10;99.90;;;;;;5049687;28;20021;-82
2022/08/31 03:04:24;;;;;;;2.90;0.90;;;14.10;99.90;;;;;;5051652;28;20070;-85
2022/08/31 03:06:50;;;;;;;3.42;1.15;;;14.10;99.90;;;;;;5074762;28;20032;-85
2022/08/31 03:09:15;;;;;;;2.60;0.90;;;14.10;99.90;;;;;;5054755;28;20044;-82
2022/08/31 03:11:41;;;;;;;3.13;0.70;;;14.10;99.90;;;;;;5031177;28;20052;-83
2022/08/31 03:14:08;;;;;;;2.05;0.88;;;14.10;99.90;;;;;;5033464;28;21874;-82
2022/08/31 03:16:34;;;;;;;1.48;0.80;;;14.10;99.90;;;;;;5051750;28;20087;-81
2022/08/31 03:19:00;;;;;;;1.13;0.70;;;14.10;99.90;;;;;;5051946;28;20029;-82
2022/08/31 03:21:25;;;;;;;1.48;0.70;;;14.10;99.90;;;;;;5017580;28;20939;-81
2022/08/31 03:23:52;;;;;;;1.85;0.90;;;14.10;99.90;;;;;;5047744;28;20043;-78
2022/08/31 03:26:18;;;;;;;1.50;0.80;;;14.20;99.90;;;;;;5031026;28;20040;-81
2022/08/31 03:28:43;;;;;;;1.30;0.73;;;14.20;99.90;;;;;;5029201;28;20033;-78
2022/08/31 03:31:09;;;;;;;1.27;0.80;;;14.20;99.90;;;;;;5028552;28;20087;-78
2022/08/31 03:33:41;;;;;;;1.42;0.93;;;14.30;99.90;;;;;;5029265;28;20059;-79
2022/08/31 03:36:07;;;;;;;6.18;1.20;;;14.30;99.90;;;;;;5042567;28;20025;-79
2022/08/31 03:38:33;;;;;;;1.20;0.68;;;14.30;99.90;;;;;;5054723;28;20040;-84
2022/08/31 03:41:01;;;;;;;5.43;1.08;;;14.30;99.90;;;;;;5060095;28;20063;-81
2022/08/31 03:43:27;;;;;;;2.65;1.02;;;14.30;99.90;;;;;;5012757;28;20489;-80
2022/08/31 03:45:53;;;;;;;1.73;0.82;;;14.30;99.90;;;;;;5050022;28;20039;-79
2022/08/31 03:48:19;;;;;;;2.45;0.90;;;14.30;99.90;;;;;;5017026;28;20029;-78
2022/08/31 03:50:45;;;;;;;2.03;0.93;;;14.30;99.90;;;;;;5032766;28;20036;-81
2022/08/31 03:53:11;;;;;;;2.70;0.90;;;14.20;99.90;;;;;;5049282;28;20520;-80
2022/08/31 03:56:00;;;;;;;1.00;0.90;;;14.20;99.90;;;;;;5034611;28;20044;-79
2022/08/31 03:58:28;;;;;;;1.30;1.13;;;14.20;99.90;;;;;;5049974;28;20037;-86
2022/08/31 04:00:54;;;;;;;1.70;0.82;;;14.10;99.90;;;;;;5051160;28;20037;-81
2022/08/31 04:03:20;;;;;;;2.55;1.13;;;14.10;99.90;;;;;;5054341;28;20033;-79
2022/08/31 04:05:45;;;;;;;2.00;1.17;;;14.00;99.90;;;;;;5016286;28;20078;-80
2022/08/31 04:08:14;;;;;;;1.13;0.93;;;14.00;99.90;;;;;;5030955;28;20025;-78
2022/08/31 04:10:42;;;;;;;1.50;1.02;;;13.90;99.90;;;;;;5013223;28;20047;-80
2022/08/31 04:13:08;;;;;;;2.65;0.98;;;14.00;99.90;;;;;;5029385;28;20039;-80
2022/08/31 04:15:35;;;;;;;1.30;0.90;;;13.90;99.90;;;;;;5051772;28;20021;-80
2022/08/31 04:18:02;;;;;;;1.98;1.20;;;13.90;99.90;;;;;;5032527;28;20029;-83
2022/08/31 04:20:28;;;;;;;1.52;1.10;;;13.90;99.90;;;;;;5032272;28;20151;-80
2022/08/31 04:22:54;;;;;;;2.10;1.13;;;13.90;99.90;;;;;;5032475;28;20107;-80
2022/08/31 04:25:20;;;;;;;2.60;1.10;;;13.90;99.90;;;;;;5035825;28;20042;-81
2022/08/31 04:27:48;;;;;;;3.20;1.23;;;13.80;99.90;;;;;;5042139;28;20025;-81
2022/08/31 04:30:14;;;;;;;3.47;1.30;;;13.80;99.90;;;;;;5051261;28;20185;-79
2022/08/31 04:32:40;;;;;;;2.13;1.40;;;13.80;99.90;;;;;;5019542;28;20150;-79
2022/08/31 04:35:07;;;;;;;2.45;1.05;;;13.70;99.90;;;;;;5034037;28;20455;-79
2022/08/31 04:37:33;;;;;;;4.10;1.40;;;13.70;99.90;;;;;;5051333;28;20095;-80
2022/08/31 04:40:00;;;;;;;3.15;1.63;;;13.70;99.90;;;;;;5058055;28;20060;-80
2022/08/31 04:42:29;;;;;;;3.22;1.20;;;13.70;99.90;;;;;;5036791;28;20074;-81
2022/08/31 04:44:54;;;;;;;2.25;1.30;;;13.70;99.90;;;;;;5032404;28;20020;-79
2022/08/31 04:47:20;;;;;;;2.13;1.38;;;13.70;99.90;;;;;;5025018;28;20035;-79
2022/08/31 04:49:47;;;;;;;3.78;1.45;;;13.70;99.90;;;;;;5025266;28;20036;-79
2022/08/31 04:52:13;;;;;;;5.72;2.03;;;13.60;99.90;;;;;;5043463;28;20032;-80
2022/08/31 04:54:41;;;;;;;5.25;1.85;;;13.60;99.90;;;;;;5010892;28;20033;-79
2022/08/31 04:57:07;;;;;;;3.38;1.58;;;13.70;99.90;;;;;;5033274;28;20021;-80
2022/08/31 04:59:33;;;;;;;3.35;1.58;;;13.60;99.90;;;;;;5047699;28;20021;-79
2022/08/31 05:01:59;;;;;;;3.28;1.35;;;13.60;99.90;;;;;;5045927;28;20070;-78
2022/08/31 05:04:27;;;;;;;2.67;1.35;;;13.60;99.90;;;;;;5031756;28;20088;-80
2022/08/31 05:06:53;;;;;;;2.45;1.58;;;13.60;99.90;;;;;;5042732;28;20033;-76
2022/08/31 05:09:21;;;;;;;2.45;1.17;;;13.70;99.90;;;;;;5026368;28;20031;-77
2022/08/31 05:11:51;;;;;;;3.28;1.52;;;13.70;99.90;;;;;;5023031;28;20025;-77
2022/08/31 05:14:17;;;;;;;4.32;1.25;;;13.70;99.90;;;;;;5031205;28;20032;-81
2022/08/31 05:16:43;;;;;;;2.67;1.15;;;13.70;99.90;;;;;;5014559;28;20025;-80
2022/08/31 05:19:09;;;;;;;2.60;1.50;;;13.70;99.90;;;;;;5009061;28;20457;-81
2022/08/31 05:21:38;;;;;;;5.45;1.45;;;13.70;99.90;;;;;;5043493;28;20139;-79
2022/08/31 05:24:07;;;;;;;2.00;1.35;;;13.70;99.90;;;;;;5047188;28;20088;-78
2022/08/31 05:26:43;;;;;;;2.38;1.30;;;13.70;99.90;;;;;;5039244;28;20108;-82
2022/08/31 05:29:12;;;;;;;4.85;1.73;;;13.80;99.90;;;;;;5033745;28;20426;-80
2022/08/31 05:31:39;;;;;;;3.85;1.73;;;13.80;99.90;;;;;;5047716;28;20977;-80
2022/08/31 05:34:05;;;;;;;3.00;1.67;;;13.80;99.90;;;;;;5033512;28;20069;-78
2022/08/31 05:36:34;;;;;;;2.63;1.38;;;13.90;99.90;;;;;;5035918;28;20538;-81
2022/08/31 05:39:00;;;;;;;3.67;1.20;;;13.90;99.90;;;;;;5017362;28;20029;-81
2022/08/31 05:41:29;;;;;;;2.65;1.40;;;13.90;99.90;;;;;;5016250;28;20053;-81
2022/08/31 05:43:55;;;;;;;3.75;1.75;;;13.90;99.90;;;;;;5028897;28;20029;-79
2022/08/31 05:46:21;;;;;;;4.25;1.60;;;14.00;99.90;;;;;;5044415;28;20500;-80
2022/08/31 05:48:46;;;;;;;2.95;1.60;;;14.00;99.90;;;;;;5014955;28;20048;-77
2022/08/31 05:51:14;;;;;;;2.97;1.92;;;14.10;99.90;;;;;;5028368;28;20025;-76
2022/08/31 05:53:41;;;;;;;2.90;1.30;;;14.10;99.90;;;;;;5027186;28;20033;-77
2022/08/31 05:56:12;;;;;;;3.25;1.58;;;14.10;99.90;;;;;;5012776;28;20025;-76
2022/08/31 05:58:39;;;;;;;;;;;14.20;99.90;;;;;;5045816;28;20246;-75
2022/08/31 06:01:22;;;;;;;2.58;1.52;;;14.20;99.90;;;;;;5029454;28;19936;-77
2022/08/31 06:03:48;;;;;;;4.32;1.48;;;14.30;99.90;;;;;;5009718;28;20037;-78
2022/08/31 06:06:15;;;;;;;2.72;1.55;;;14.30;99.90;;;;;;5025876;28;20368;-77
2022/08/31 06:08:41;;;;;;;3.42;1.70;;;14.40;99.90;;;;;;5032367;28;20531;-77
2022/08/31 06:11:13;;;;;;;2.45;1.33;;;14.40;99.90;;;;;;5044471;28;20063;-76
2022/08/31 06:13:39;;;;;;;4.05;1.50;;;14.40;99.90;;;;;;5028746;28;20051;-76
2022/08/31 06:16:05;;;;;;;6.93;1.80;;;14.50;99.90;;;;;;5013452;28;20022;-78
2022/08/31 06:18:31;;;;;;;1.70;1.15;;;14.50;99.90;;;;;;5049171;28;20404;-77
2022/08/31 06:21:06;;;;;;;3.40;1.10;;;14.60;99.90;;;;;;5030072;28;22066;-77
2022/08/31 06:23:31;;;;;;;2.53;1.15;;;14.60;99.90;;;;;;5030399;28;20796;-78
2022/08/31 06:26:02;;;;;;;3.17;1.00;;;14.70;99.90;;;;;;5029839;28;20029;-78
2022/08/31 06:28:31;;;;;;;;;;;14.70;99.90;;;;;;5029741;28;20029;-77
2022/08/31 06:31:01;;;;;;;1.60;1.08;;;14.70;99.90;;;;;;5041771;28;19917;-77
2022/08/31 06:33:28;;;;;;;2.83;1.10;;;14.80;99.90;;;;;;5028165;28;20052;-77
2022/08/31 06:35:54;;;;;;;3.28;1.40;;;14.80;99.90;;;;;;5031401;28;20033;-77
2022/08/31 06:38:21;;;;;;;2.58;1.02;;;14.90;99.90;;;;;;5044749;28;20455;-76
2022/08/31 06:40:50;;;;;;;8.32;1.38;;;14.90;99.90;;;;;;5027857;28;20033;-77
2022/08/31 06:43:16;;;;;;;1.50;0.98;;;15.00;99.90;;;;;;5033039;28;20025;-76
2022/08/31 06:45:42;;;;;;;2.33;1.02;;;15.10;99.90;;;;;;5045905;28;20029;-77
2022/08/31 06:48:08;;;;;;;3.90;1.48;;;15.10;99.90;;;;;;5038882;28;20031;-77
2022/08/31 06:50:34;;;;;;;2.35;1.10;;;15.20;99.90;;;;;;5054949;28;20037;-77
2022/08/31 06:53:00;;;;;;;1.77;0.85;;;15.20;99.90;;;;;;5019389;28;20393;-77
2022/08/31 06:55:25;;;;;;;2.53;1.08;;;15.30;99.90;;;;;;5031974;28;20081;-77
2022/08/31 06:57:51;;;;;;;3.90;1.23;;;15.30;99.90;;;;;;5063271;28;20156;-81
2022/08/31 07:00:17;;;;;;;4.00;0.95;;;15.40;99.90;;;;;;5063132;28;20036;-81
2022/08/31 07:02:42;;;;;;;3.65;0.80;;;15.40;99.90;;;;;;5027633;28;20025;-78
2022/08/31 07:05:08;;;;;;;2.17;0.60;;;15.50;99.90;;;;;;5041612;28;20033;-80
2022/08/31 07:07:34;;;;;;;2.72;0.88;;;15.60;99.90;;;;;;5037680;28;20032;-80
2022/08/31 07:10:00;;;;;;;2.33;0.80;;;15.60;99.90;;;;;;5022780;28;20017;-78
2022/08/31 07:12:25;;;;;;;2.67;1.00;;;15.60;99.90;;;;;;5019596;28;20046;-79
2022/08/31 07:14:51;;;;;;;4.13;0.88;;;15.70;99.90;;;;;;5035759;28;20081;-80
2022/08/31 07:17:18;;;;;;;2.35;1.13;;;15.80;99.90;;;;;;5018162;28;20032;-80
2022/08/31 07:19:43;;;;;;;2.75;0.73;;;15.80;99.90;;;;;;5019730;28;20041;-80
2022/08/31 07:22:09;;;;;;;2.05;0.70;;;15.90;99.90;;;;;;5022759;28;20025;-78
2022/08/31 07:24:35;;;;;;;5.57;0.90;;;16.00;99.90;;;;;;5021403;28;20045;-79
2022/08/31 07:27:08;;;;;;;2.42;0.63;;;16.00;99.90;;;;;;5018544;28;20482;-80
2022/08/31 07:29:39;;;;;;;0.82;0.60;;;16.00;99.90;;;;;;5039806;28;20033;-79
2022/08/31 07:32:12;;;;;;;2.67;0.82;;;16.10;99.90;;;;;;5036290;28;20048;-79
2022/08/31 07:34:38;;;;;;;1.20;0.57;;;16.20;99.90;;;;;;5032210;28;20217;-79
2022/08/31 07:42:45;;;;;;;0.95;0.68;;;16.40;99.90;;;;;;5032939;28;20438;-81
2022/08/31 07:45:23;;;;;;;1.27;0.85;;;16.50;99.90;;;;;;5036439;28;20043;-79
2022/08/31 07:47:50;;;;;;;5.30;0.63;;;16.50;99.90;;;;;;5034578;28;20568;-80
2022/08/31 07:50:16;;;;;;;3.50;0.68;;;16.60;99.90;;;;;;5055159;28;20116;-80
2022/08/31 07:52:47;;;;;;;1.50;0.60;;;16.60;99.90;;;;;;5036682;28;20247;-79
2022/08/31 07:55:15;;;;;;;0.85;0.60;;;16.70;99.90;;;;;;5035552;28;21093;-80
2022/08/31 07:57:44;;;;;;;0.77;0.43;;;16.80;99.90;;;;;;5030767;28;20031;-81
2022/08/31 08:00:19;;;;;;;4.60;0.63;;;16.80;99.90;;;;;;5039511;28;20052;-81
2022/08/31 08:02:45;;;;;;;0.70;0.50;;;16.90;99.90;;;;;;5041313;28;20029;-81
2022/08/31 08:05:20;;;;;;;1.35;0.70;;;16.90;99.90;;;;;;5036883;28;20592;-80
2022/08/31 08:07:51;;;;;;;0.65;0.40;;;17.00;99.90;;;;;;5018098;28;20173;-80
2022/08/31 08:10:20;;;;;;;0.93;0.50;;;17.00;99.90;;;;;;5036427;28;20040;-80
2022/08/31 08:12:55;;;;;;;1.42;0.57;;;17.00;99.90;;;;;;5022478;28;20033;-81
2022/08/31 08:15:21;;;;;;;0.65;0.60;;;17.00;99.90;;;;;;5037145;28;20092;-80
2022/08/31 08:17:47;;;;;;;0.30;0.25;;;17.10;99.90;;;;;;5034724;28;20063;-81
2022/08/31 08:20:12;;;;;;;5.38;0.88;;;17.20;99.90;;;;;;5036964;28;20108;-79
2022/08/31 08:22:39;;;;;;;3.35;0.70;;;17.20;99.90;;;;;;5036790;28;20021;-83
2022/08/31 08:25:05;;;;;;;1.20;0.65;;;17.20;99.90;;;;;;5023069;28;20032;-80
2022/08/31 08:27:32;;;;;;;7.65;0.75;;;17.30;99.90;;;;;;5037345;28;20028;-79
2022/08/31 08:29:58;;;;;;;3.03;1.02;;;17.40;99.90;;;;;;5035149;28;20040;-80
2022/08/31 08:32:24;;;;;;;2.88;0.65;;;17.40;99.90;;;;;;5018360;28;20116;-79
2022/08/31 08:34:50;;;;;;;1.33;0.63;;;17.50;99.90;;;;;;5058433;28;20056;-81
2022/08/31 08:37:16;;;;;;;1.10;0.68;;;17.50;99.90;;;;;;5039410;28;20031;-80
2022/08/31 08:39:44;;;;;;;1.45;0.65;;;17.50;99.90;;;;;;5019140;28;20029;-81
2022/08/31 08:42:12;;;;;;;1.98;0.77;;;17.60;99.90;;;;;;5034606;28;20021;-79
2022/08/31 08:44:39;;;;;;;2.85;0.47;;;17.60;99.90;;;;;;5034761;28;20170;-78
2022/08/31 08:47:19;;;;;;;4.82;0.65;;;17.60;99.80;;;;;;5046808;28;20045;-78
2022/08/31 08:49:49;;;;;;;1.95;0.68;;;17.60;99.40;;;;;;5038586;28;20314;-79
2022/08/31 08:52:26;;;;;;;1.48;0.60;;;17.60;99.20;;;;;;5037425;28;20053;-80
2022/08/31 08:54:54;;;;;;;0.57;0.57;;;17.70;99.40;;;;;;5049809;28;20033;-79
2022/08/31 08:57:26;;;;;;;0.90;0.40;;;17.80;98.80;;;;;;5035746;28;20025;-79
2022/08/31 08:59:56;;;;;;;1.30;0.50;;;17.80;98.90;;;;;;5034611;28;20028;-78
2022/08/31 09:02:36;;;;;;;0.77;0.50;;;17.80;99.00;;;;;;5031966;28;20033;-79
2022/08/31 09:05:09;;;;;;;1.15;0.55;;;17.90;99.00;;;;;;5013554;28;20048;-80
2022/08/31 09:07:43;;;;;;;1.13;0.60;;;18.00;99.10;;;;;;5019872;28;20065;-78
2022/08/31 09:10:31;;;;;;;1.20;0.40;;;18.00;98.80;;;;;;5035830;28;20036;-79
2022/08/31 09:13:21;;;;;;;0.70;0.40;;;18.10;98.70;;;;;;5035865;28;20092;-80
2022/08/31 09:16:16;;;;;;;2.25;0.50;;;18.20;98.60;;;;;;5054136;28;20051;-79
2022/08/31 09:19:00;;;;;;;0.80;0.50;;;18.20;98.50;;;;;;5037294;28;20037;-79
2022/08/31 09:21:37;;;;;;;3.13;0.63;;;18.30;98.80;;;;;;5034678;28;20115;-79
2022/08/31 09:24:05;;;;;;;1.65;0.75;;;18.40;98.60;;;;;;5036456;28;20033;-78
2022/08/31 09:26:44;;;;;;;0.75;0.50;;;18.50;98.30;;;;;;5061614;28;20051;-78
2022/08/31 09:29:24;;;;;;;1.17;0.40;;;18.60;97.90;;;;;;5051521;28;20057;-78
2022/08/31 09:32:07;;;;;;;1.00;0.50;;;18.70;97.30;;;;;;5036108;28;20028;-80
2022/08/31 09:34:37;;;;;;;1.88;0.47;;;18.70;97.10;;;;;;5034006;28;20025;-81
2022/08/31 09:37:15;;;;;;;1.15;0.65;;;18.80;96.70;;;;;;5051624;28;20056;-82
2022/08/31 09:39:47;;;;;;;7.90;0.80;;;18.90;95.80;;;;;;5038535;28;20048;-79
2022/08/31 09:42:19;;;;;;;0.85;0.50;;;18.90;95.30;;;;;;5040755;28;20027;-78
2022/08/31 09:44:49;;;;;;;0.95;0.50;;;18.90;95.50;;;;;;5041856;28;20032;-79
2022/08/31 09:47:47;;;;;;;1.35;0.60;;;18.90;94.70;;;;;;5020637;28;20508;-79
2022/08/31 09:50:35;;;;;;;0.75;0.50;;;19.00;93.40;;;;;;5018787;28;20048;-79
2022/08/31 09:56:13;;;;;;;2.60;0.60;;;19.00;93.50;;;;;;5050564;28;20033;-79
2022/08/31 09:58:40;;;;;;;;;;;19.00;93.60;;;;;;5052157;28;20061;-79
2022/08/31 10:01:13;;;;;;;0.88;0.65;;;19.00;93.20;;;;;;5017684;28;20520;-79
2022/08/31 10:03:44;;;;;;;1.25;0.50;;;18.90;93.30;;;;;;5033322;28;20124;-80
2022/08/31 10:06:43;;;;;;;0.70;0.40;;;18.90;93.10;;;;;;5037836;28;20033;-79
2022/08/31 10:09:42;;;;;;;5.93;0.68;;;18.90;93.60;;;;;;5017880;28;20345;-79
2022/08/31 10:12:15;;;;;;;0.95;0.52;;;18.90;93.30;;;;;;5035142;28;20041;-73
2022/08/31 10:14:55;;;;;;;0.75;0.55;;;19.00;92.90;;;;;;5023308;28;20036;-72
2022/08/31 10:17:31;;;;;;;1.27;0.60;;;19.10;93.10;;;;;;5035317;28;20188;-76
2022/08/31 10:20:19;;;;;;;1.58;0.60;;;19.20;92.10;;;;;;5045990;28;20028;-75
2022/08/31 10:22:56;;;;;;;1.02;0.60;;;19.20;92.00;;;;;;5046519;28;20991;-75
2022/08/31 10:25:41;;;;;;;0.90;0.40;;;19.30;92.10;;;;;;5046033;28;20025;-76
2022/08/31 10:28:24;;;;;;;0.95;0.50;;;19.40;91.70;;;;;;5047553;28;20029;-79
2022/08/31 10:31:08;;;;;;;1.25;0.52;;;19.40;89.60;;;;;;5047989;28;20052;-76
2022/08/31 10:36:35;;;;;;;1.40;0.50;;;19.40;89.00;;;;;;5049338;28;20447;-77
2022/08/31 10:39:01;;;;;;;1.27;0.60;;;19.40;90.20;;;;;;5015238;28;20746;-74
2022/08/31 10:41:37;;;;;;;1.13;0.50;;;19.40;88.70;;;;;;5032445;28;20100;-77
2022/08/31 10:44:22;;;;;;;1.17;0.60;;;19.40;88.30;;;;;;5032472;28;20029;-70
2022/08/31 10:46:50;;;;;;;1.30;0.70;;;19.50;88.90;;;;;;5029670;28;20384;-80
2022/08/31 10:49:19;;;;;;;1.88;0.80;;;19.50;86.70;;;;;;5013645;28;20119;-75
2022/08/31 10:52:01;;;;;;;1.20;0.68;;;19.50;87.90;;;;;;5013820;28;20029;-74
2022/08/31 10:54:43;;;;;;;1.13;0.60;;;19.60;87.80;;;;;;5042065;28;20029;-74
2022/08/31 10:57:32;;;;;;;1.58;0.50;;;19.60;87.30;;;;;;5011787;28;20070;-75
2022/08/31 11:03:37;;;;;;;1.20;0.60;;;19.80;86.00;;;;;;5048259;28;20033;-74
2022/08/31 11:06:14;;;;;;;2.67;0.60;;;19.90;85.20;;;;;;5007387;28;20036;-74
2022/08/31 11:09:19;;;;;;;0.73;0.50;;;19.90;87.00;;;;;;5029172;28;20080;-75
2022/08/31 11:11:56;;;;;;;1.58;0.88;;;19.90;86.30;;;;;;4986607;28;20093;-75
2022/08/31 11:14:39;;;;;;;2.95;0.70;;;20.00;86.00;;;;;;5027575;28;20166;-75
2022/08/31 11:17:26;;;;;;;1.17;0.63;;;20.00;86.40;;;;;;5029185;28;20032;-75
2022/08/31 11:20:08;;;;;;;0.77;0.50;;;20.10;86.50;;;;;;5045165;28;20024;-73
2022/08/31 11:22:48;;;;;;;0.75;0.70;;;20.20;86.30;;;;;;5029912;28;20021;-74
2022/08/31 11:25:51;;;;;;;2.10;0.60;;;20.20;87.50;;;;;;5048578;28;20110;-74
2022/08/31 11:28:27;;;;;;;2.17;0.60;;;20.30;86.70;;;;;;5045553;28;20448;-73
2022/08/31 11:30:54;;;;;;;0.77;0.45;;;20.30;85.70;;;;;;5011160;28;20044;-74
2022/08/31 11:33:27;;;;;;;1.00;0.77;;;20.20;86.40;;;;;;5033447;28;20037;-75
2022/08/31 11:36:08;;;;;;;1.42;0.60;;;20.10;85.10;;;;;;5027704;28;20025;-75
2022/08/31 11:38:44;;;;;;;1.90;0.68;;;20.00;85.20;;;;;;5029828;28;20029;-74
2022/08/31 11:41:10;;;;;;;1.67;0.50;;;20.10;86.70;;;;;;5048973;28;20040;-78
2022/08/31 11:43:35;;;;;;;1.83;0.52;;;20.20;86.60;;;;;;5050635;28;20033;-75
2022/08/31 11:46:36;;;;;;;1.73;0.82;;;20.30;85.00;;;;;;5015452;28;20025;-77
2022/08/31 11:49:02;;;;;;;0.80;0.45;;;20.60;85.20;;;;;;5004441;28;20128;-78
2022/08/31 11:51:34;;;;;;;3.53;0.68;;;20.70;85.80;;;;;;5039101;28;20449;-77
2022/08/31 11:54:04;;;;;;;1.38;0.68;;;21.00;86.10;;;;;;5031666;28;20035;-77
2022/08/31 11:56:37;;;;;;;2.03;0.70;;;21.10;83.00;;;;;;5048476;28;20203;-79
2022/08/31 11:59:26;;;;;;;2.50;0.68;;;21.30;82.30;;;;;;5030567;28;20313;-77
2022/08/31 12:01:55;;;;;;;1.02;0.70;;;21.60;82.70;;;;;;5029416;28;20040;-77
2022/08/31 12:04:44;;;;;;;2.70;0.73;;;22.10;80.40;;;;;;5046768;28;20108;-77
2022/08/31 12:07:15;;;;;;;1.02;0.60;;;22.60;76.50;;;;;;5028579;28;20119;-76
2022/08/31 12:09:52;;;;;;;;;;;23.20;78.10;;;;;;5027002;28;20037;-77
2022/08/31 12:12:18;;;;;;;0.75;0.52;;;23.70;76.10;;;;;;5046357;28;19909;-77
2022/08/31 12:15:11;;;;;;;3.20;0.70;;;24.10;71.00;;;;;;5055179;28;20028;-78
2022/08/31 12:18:03;;;;;;;2.88;0.80;;;24.60;72.00;;;;;;5019642;28;20034;-79
2022/08/31 12:24:23;;;;;;;0.90;0.50;;;25.90;64.80;;;;;;5046611;28;20025;-80
2022/08/31 12:27:04;;;;;;;0.70;0.60;;;26.60;62.50;;;;;;5052269;28;20044;-77
2022/08/31 12:29:38;;;;;;;1.40;0.68;;;27.00;62.20;;;;;;5048288;28;20028;-77
2022/08/31 12:32:25;;;;;;;2.05;0.80;;;27.30;59.20;;;;;;5027578;28;20024;-77
2022/08/31 12:35:17;;;;;;;2.92;0.70;;;27.40;59.30;;;;;;5029757;28;20086;-77
2022/08/31 12:37:43;;;;;;;0.60;0.52;;;27.50;56.80;;;;;;5034089;28;20059;-77
2022/08/31 12:40:09;;;;;;;0.90;0.63;;;27.80;56.50;;;;;;5027755;28;20044;-77
2022/08/31 12:43:02;;;;;;;2.22;0.90;;;27.60;55.70;;;;;;5028697;28;20528;-77
2022/08/31 12:45:37;;;;;;;1.75;0.65;;;27.00;56.00;;;;;;4993468;28;20496;-77
2022/08/31 12:48:29;;;;;;;0.63;0.63;;;27.40;55.50;;;;;;5029942;28;20057;-76
2022/08/31 12:51:32;;;;;;;1.60;0.77;;;28.20;52.90;;;;;;5008538;28;20557;-75
2022/08/31 12:54:18;;;;;;;1.25;0.70;;;29.60;51.60;;;;;;5028695;28;20036;-76
2022/08/31 12:56:53;;;;;;;1.70;0.80;;;30.00;50.30;;;;;;5028131;28;20033;-78
2022/08/31 12:59:57;;;;;;;1.05;0.70;;;29.10;50.40;;;;;;5029135;28;20056;-76
2022/08/31 13:02:23;;;;;;;1.13;0.70;;;28.30;50.70;;;;;;5023111;28;20558;-76
2022/08/31 13:04:52;;;;;;;0.88;0.50;;;28.80;51.00;;;;;;5028567;28;20404;-77
2022/08/31 13:07:28;;;;;;;1.08;0.63;;;29.80;49.40;;;;;;5029172;28;20516;-76
2022/08/31 13:10:14;;;;;;;2.33;0.68;;;30.60;48.10;;;;;;5026732;28;20037;-76
2022/08/31 13:12:48;;;;;;;2.30;0.60;;;31.20;46.40;;;;;;5047900;28;20032;-77
2022/08/31 13:15:33;;;;;;;1.40;0.90;;;30.50;44.30;;;;;;5028568;28;20029;-76
2022/08/31 13:18:01;;;;;;;2.15;0.60;;;29.20;45.80;;;;;;5028048;28;20203;-77
2022/08/31 13:20:39;;;;;;;1.45;0.70;;;27.90;48.90;;;;;;5028856;28;20043;-77
2022/08/31 13:23:09;;;;;;;4.80;0.90;;;27.10;50.40;;;;;;5030736;28;20113;-77
2022/08/31 13:25:34;;;;;;;1.55;0.82;;;26.30;51.40;;;;;;5046579;28;20516;-78
2022/08/31 13:28:25;;;;;;;0.93;0.63;;;25.60;52.10;;;;;;5019345;28;20052;-77
2022/08/31 13:30:58;;;;;;;1.17;0.70;;;25.20;53.90;;;;;;5036904;28;20044;-78